Time;durP1;ratioP1;P1;durP2;ratioP2;P2;SDS_P1;SDS_P2;PMS_P1;PMS_P2;Temp;Humidity;BMP_temperature;BMP_pressure;BME280_temperature;BME280_humidity;BME280_pressure;Samples;Min_cycle;Max_cycle;Signal;HPM_P1;HPM_P2
2022/07/15 00:00:00;;;;;;;403.00;359.13;;;;;;;23.69;54.79;99539.66;339438;29;1049;-73
2022/07/15 00:00:11;;;;;;;403.52;359.63;;;;;;;23.68;54.83;99539.81;340327;29;1926;-73
2022/07/15 00:00:23;;;;;;;402.88;359.10;;;;;;;23.69;54.80;99541.50;337466;29;1877;-73
2022/07/15 00:00:33;;;;;;;398.60;354.93;;;;;;;23.69;54.65;99539.66;339507;29;931;-73
2022/07/15 00:00:44;;;;;;;399.38;355.63;;;;;;;23.69;54.95;99549.50;340773;29;931;-73
2022/07/15 00:00:54;;;;;;;397.57;353.77;;;;;;;23.68;54.94;99547.81;340471;29;1172;-73
2022/07/15 00:01:05;;;;;;;397.98;354.10;;;;;;;23.68;55.05;99547.81;338495;29;1572;-73
2022/07/15 00:01:15;;;;;;;397.27;353.67;;;;;;;23.69;54.68;99542.34;340775;29;921;-73
2022/07/15 00:01:26;;;;;;;397.98;354.58;;;;;;;23.69;54.99;99546.84;337872;29;1818;-73
2022/07/15 00:01:36;;;;;;;403.93;360.43;;;;;;;23.69;55.12;99539.66;333969;29;1812;-73
2022/07/15 00:01:46;;;;;;;405.48;361.80;;;;;;;23.69;54.95;99544.16;331823;29;831;-73
2022/07/15 00:01:57;;;;;;;407.83;364.03;;;;;;;23.66;54.97;99544.47;330467;29;942;-73
2022/07/15 00:02:08;;;;;;;403.42;359.75;;;;;;;23.67;55.23;99544.31;330195;29;1992;-73
2022/07/15 00:02:18;;;;;;;399.63;356.17;;;;;;;23.66;55.15;99541.78;329376;29;1684;-73
2022/07/15 00:02:29;;;;;;;397.40;353.80;;;;;;;23.64;55.04;99541.09;330502;29;903;-73
2022/07/15 00:02:39;;;;;;;398.40;354.70;;;;;;;23.64;55.58;99541.09;329935;29;1285;-73
2022/07/15 00:02:50;;;;;;;397.03;353.27;;;;;;;23.62;55.33;99545.75;327701;29;1722;-73
2022/07/15 00:03:00;;;;;;;404.57;360.67;;;;;;;23.62;55.52;99543.06;325585;30;871;-73
2022/07/15 00:03:11;;;;;;;403.25;359.40;;;;;;;23.63;55.35;99540.25;325065;30;1889;-73
2022/07/15 00:03:21;;;;;;;406.10;362.00;;;;;;;23.61;55.42;99541.38;326064;30;2020;-73
2022/07/15 00:03:31;;;;;;;403.30;359.30;;;;;;;23.60;55.73;99545.03;328036;30;824;-73
2022/07/15 00:03:42;;;;;;;407.83;363.73;;;;;;;23.59;55.83;99548.72;324582;30;4272;-73
2022/07/15 00:03:52;;;;;;;407.48;363.60;;;;;;;23.59;55.74;99548.72;328288;29;2790;-73
2022/07/15 00:04:03;;;;;;;405.73;361.87;;;;;;;23.61;55.32;99546.72;328516;29;2121;-73
2022/07/15 00:04:13;;;;;;;402.60;358.83;;;;;;;23.61;55.48;99544.06;330160;29;2877;-73
2022/07/15 00:04:23;;;;;;;404.53;360.67;;;;;;;23.61;55.58;99544.06;327892;30;2571;-73
2022/07/15 00:04:34;;;;;;;401.77;358.17;;;;;;;23.61;55.77;99546.72;324789;30;1878;-73
2022/07/15 00:04:45;;;;;;;403.98;360.33;;;;;;;23.59;55.43;99544.19;326794;30;788;-73
2022/07/15 00:04:55;;;;;;;403.15;359.65;;;;;;;23.59;55.62;99549.56;322587;30;2038;-73
2022/07/15 00:05:06;;;;;;;402.97;359.43;;;;;;;23.59;55.78;99543.34;322879;30;2053;-74
2022/07/15 00:05:17;;;;;;;403.38;359.73;;;;;;;23.59;55.75;99543.34;324468;30;856;-74
2022/07/15 00:05:28;;;;;;;410.40;366.42;;;;;;;23.58;55.56;99541.69;317552;31;1233;-74
2022/07/15 00:05:38;;;;;;;413.80;369.77;;;;;;;23.59;55.66;99541.53;320137;30;2640;-73
2022/07/15 00:05:49;;;;;;;413.95;369.98;;;;;;;23.60;55.22;99545.03;321918;30;3394;-73
2022/07/15 00:05:59;;;;;;;412.83;368.90;;;;;;;23.62;55.08;99545.75;320815;30;1151;-73
2022/07/15 00:06:09;;;;;;;406.60;362.83;;;;;;;23.60;55.29;99545.03;319819;30;3255;-73
2022/07/15 00:06:20;;;;;;;405.20;361.42;;;;;;;23.58;55.63;99553.22;318553;30;2827;-73
2022/07/15 00:06:30;;;;;;;403.43;359.80;;;;;;;23.55;55.28;99537.47;320749;30;1241;-73
2022/07/15 00:06:41;;;;;;;407.75;363.95;;;;;;;23.54;55.26;99541.13;315001;31;3450;-73
2022/07/15 00:06:51;;;;;;;411.87;367.77;;;;;;;23.52;55.70;99537.72;314565;31;2421;-73
2022/07/15 00:07:02;;;;;;;413.55;369.42;;;;;;;23.50;55.55;99550.38;316229;31;1237;-73
2022/07/15 00:07:13;;;;;;;410.13;366.17;;;;;;;23.49;55.49;99546.88;314968;31;1457;-73
2022/07/15 00:07:23;;;;;;;406.75;362.95;;;;;;;23.49;55.43;99540.69;314223;31;3045;-73
2022/07/15 00:07:34;;;;;;;406.47;362.47;;;;;;;23.46;55.25;99543.66;311421;31;3575;-73
2022/07/15 00:07:44;;;;;;;411.75;367.35;;;;;;;23.45;55.20;99542.81;310395;31;1595;-73
2022/07/15 00:07:55;;;;;;;415.83;371.30;;;;;;;23.44;55.41;99538.47;309964;31;3849;-73
2022/07/15 00:08:05;;;;;;;419.73;375.23;;;;;;;23.45;55.23;99544.66;308128;31;4648;-73
2022/07/15 00:08:15;;;;;;;422.55;378.05;;;;;;;23.43;55.26;99544.78;306775;32;1962;-73
2022/07/15 00:08:28;;;;;;;424.23;379.70;;;;;;;23.44;55.23;99541.13;306408;32;4705;-73
2022/07/15 00:08:38;;;;;;;421.02;376.82;;;;;;;23.44;55.34;99545.63;300477;32;4039;-73
2022/07/15 00:08:49;;;;;;;418.67;374.63;;;;;;;23.45;55.14;99542.81;299311;32;4314;-73
2022/07/15 00:08:59;;;;;;;417.90;373.77;;;;;;;23.46;55.07;99549.84;302153;32;805;-73
2022/07/15 00:09:09;;;;;;;416.20;371.98;;;;;;;23.46;55.38;99539.16;303095;32;3519;-73
2022/07/15 00:09:20;;;;;;;417.30;372.73;;;;;;;23.47;55.23;99546.19;302392;32;3299;-73
2022/07/15 00:10:15;;;;;;;408.48;364.27;;;;;;;23.44;55.25;99545.63;296878;33;1047;-73
2022/07/15 00:10:25;;;;;;;415.58;371.23;;;;;;;23.44;54.81;99538.47;292297;33;6766;-73
2022/07/15 00:10:35;;;;;;;422.30;377.90;;;;;;;23.43;54.98;99544.78;292301;33;6865;-73
2022/07/15 00:10:46;;;;;;;422.97;378.37;;;;;;;23.40;55.00;99545.06;291068;33;1434;-73
2022/07/15 00:10:56;;;;;;;420.17;375.55;;;;;;;23.40;54.96;99541.56;288989;33;5979;-73
2022/07/15 00:11:06;;;;;;;425.60;380.70;;;;;;;23.42;54.84;99537.75;288476;33;6060;-73
2022/07/15 00:11:17;;;;;;;426.40;381.30;;;;;;;23.42;55.13;99545.78;289032;34;3255;-73
2022/07/15 00:11:27;;;;;;;427.93;382.80;;;;;;;23.40;55.14;99547.75;285449;34;893;-73
2022/07/15 00:11:38;;;;;;;428.03;383.07;;;;;;;23.39;55.08;99546.09;285851;34;4699;-73
2022/07/15 00:11:48;;;;;;;422.80;378.25;;;;;;;23.39;54.96;99535.41;285412;34;6052;-73
2022/07/15 00:11:58;;;;;;;422.10;377.50;;;;;;;23.36;54.72;99538.38;285628;34;1283;-73
2022/07/15 00:12:09;;;;;;;413.42;369.10;;;;;;;23.38;54.92;99535.56;282580;34;7650;-73
2022/07/15 00:12:19;;;;;;;411.60;367.43;;;;;;;23.38;54.70;99546.25;282171;34;8103;-73
2022/07/15 00:12:30;;;;;;;409.88;365.90;;;;;;;23.35;54.73;99547.38;287164;34;1224;-73
2022/07/15 00:12:45;;;;;;;408.17;364.30;;;;;;;23.35;55.12;99542.03;283203;34;8943;-73
2022/07/15 00:12:57;;;;;;;414.95;370.98;;;;;;;23.32;55.29;99542.31;275235;35;9469;-73
2022/07/15 00:13:07;;;;;;;421.48;377.25;;;;;;;23.32;55.08;99541.47;277241;35;8616;-73
2022/07/15 00:13:18;;;;;;;419.60;375.35;;;;;;;23.32;55.32;99542.31;278643;35;5018;-72
2022/07/15 00:13:29;;;;;;;416.93;372.60;;;;;;;23.30;55.28;99538.94;279447;35;3087;-72
2022/07/15 00:13:39;;;;;;;414.33;369.95;;;;;;;23.29;54.89;99537.28;276563;35;6552;-72
2022/07/15 00:13:50;;;;;;;418.58;374.20;;;;;;;23.30;55.04;99544.28;273479;36;6952;-72
2022/07/15 00:14:01;;;;;;;429.43;384.77;;;;;;;23.29;54.96;99542.59;273762;36;1384;-72
2022/07/15 00:15:54;;;;;;;406.17;354.56;;;;;;;23.34;54.89;99540.34;2498717;27;20494;-72
2022/07/15 00:16:04;;;;;;;415.33;370.80;;;;;;;23.35;54.82;99541.19;354339;27;1186;-72
2022/07/15 00:16:14;;;;;;;416.20;371.70;;;;;;;23.29;54.79;99534.59;353133;27;1612;-72
2022/07/15 00:16:25;;;;;;;416.87;372.03;;;;;;;23.31;55.27;99532.63;351699;28;785;-72
2022/07/15 00:16:35;;;;;;;419.97;375.27;;;;;;;23.29;55.09;99539.94;350685;28;914;-72
2022/07/15 00:16:46;;;;;;;418.13;373.55;;;;;;;23.29;54.92;99536.44;348902;28;911;-72
2022/07/15 00:16:56;;;;;;;419.53;375.03;;;;;;;23.28;54.70;99540.94;350236;28;1248;-72
2022/07/15 00:17:07;;;;;;;417.30;372.83;;;;;;;23.28;54.69;99540.94;350172;28;1418;-72
2022/07/15 00:17:18;;;;;;;417.00;372.67;;;;;;;23.29;54.92;99536.44;348799;28;847;-72
2022/07/15 00:17:28;;;;;;;414.17;370.00;;;;;;;23.29;54.86;99539.94;347623;28;843;-72
2022/07/15 00:17:40;;;;;;;423.13;378.80;;;;;;;23.31;54.53;99543.31;348777;28;891;-72
2022/07/15 00:17:50;;;;;;;420.55;376.25;;;;;;;23.30;54.42;99536.28;348285;28;1571;-72
2022/07/15 00:18:04;;;;;;;418.65;374.27;;;;;;;23.30;54.58;99536.28;348205;28;954;-72
2022/07/15 00:18:15;;;;;;;435.05;390.27;;;;;;;23.24;54.55;99539.53;346009;28;910;-72
2022/07/15 00:18:25;;;;;;;452.50;407.45;;;;;;;23.23;54.46;99540.53;347550;28;907;-72
2022/07/15 00:18:35;;;;;;;468.23;422.70;;;;;;;23.20;54.82;99538.97;347280;28;1615;-72
2022/07/15 00:18:46;;;;;;;471.30;425.70;;;;;;;23.20;54.86;99538.13;345986;28;1227;-72
2022/07/15 00:18:57;;;;;;;469.58;424.08;;;;;;;23.20;54.52;99540.81;346039;28;893;-72
2022/07/15 00:19:07;;;;;;;463.88;418.73;;;;;;;23.20;55.09;99538.97;344752;28;1536;-72
2022/07/15 00:19:18;;;;;;;463.00;417.83;;;;;;;23.18;54.60;99534.75;345338;28;861;-72
2022/07/15 00:19:28;;;;;;;467.90;422.70;;;;;;;23.15;54.63;99540.41;345960;28;1277;-73
2022/07/15 00:19:38;;;;;;;475.23;429.93;;;;;;;23.17;54.81;99543.75;346037;28;1122;-73
2022/07/15 00:19:49;;;;;;;469.73;424.45;;;;;;;23.10;54.89;99531.97;347557;28;1330;-73
2022/07/15 00:20:00;;;;;;;470.87;425.50;;;;;;;23.12;54.59;99536.19;345244;28;1543;-73
2022/07/15 00:20:11;;;;;;;478.45;432.73;;;;;;;23.13;54.73;99540.53;345784;28;1673;-73
2022/07/15 00:20:22;;;;;;;483.20;437.42;;;;;;;23.13;54.78;99531.69;344637;28;1089;-73
2022/07/15 00:20:35;;;;;;;483.80;437.98;;;;;;;23.11;54.52;99531.00;343852;28;1686;-73
2022/07/15 00:20:45;;;;;;;481.08;435.27;;;;;;;23.14;54.85;99536.88;345169;28;951;-73
2022/07/15 00:20:56;;;;;;;478.53;432.63;;;;;;;23.08;54.82;99533.94;347437;28;1211;-73
2022/07/15 00:21:06;;;;;;;481.25;435.02;;;;;;;23.08;54.99;99533.94;344306;28;1442;-73
2022/07/15 00:21:17;;;;;;;483.67;437.35;;;;;;;23.07;54.99;99537.59;343281;28;1364;-73
2022/07/15 00:21:27;;;;;;;482.87;436.63;;;;;;;23.10;54.65;99531.97;345989;28;884;-73
2022/07/15 00:21:38;;;;;;;473.02;427.15;;;;;;;23.09;54.67;99531.13;340552;29;1196;-73
2022/07/15 00:21:48;;;;;;;475.33;429.50;;;;;;;23.11;54.87;99533.66;338733;29;1413;-73
2022/07/15 00:21:59;;;;;;;487.63;441.70;;;;;;;23.12;55.02;99543.34;337861;29;3671;-73
2022/07/15 00:22:09;;;;;;;493.35;447.40;;;;;;;23.15;54.51;99537.72;334858;29;4640;-73
2022/07/15 00:22:20;;;;;;;491.00;445.17;;;;;;;23.12;54.81;99535.34;340977;28;2060;-73
2022/07/15 00:22:31;;;;;;;488.50;442.63;;;;;;;23.14;54.60;99539.56;340940;28;2070;-73
2022/07/15 00:22:42;;;;;;;491.52;445.55;;;;;;;23.12;54.42;99532.66;338568;29;3086;-73
2022/07/15 00:22:52;;;;;;;491.17;445.33;;;;;;;23.15;54.64;99535.06;338673;29;896;-73
2022/07/15 00:23:03;;;;;;;491.63;445.90;;;;;;;23.15;54.38;99543.06;339360;29;1451;-73
2022/07/15 00:23:14;;;;;;;490.95;445.08;;;;;;;23.16;54.85;99528.72;341788;28;1387;-73
2022/07/15 00:23:24;;;;;;;493.30;447.40;;;;;;;23.13;54.83;99529.00;335504;29;1214;-73
2022/07/15 00:23:35;;;;;;;488.33;442.48;;;;;;;23.11;54.87;99537.16;336243;29;1293;-73
2022/07/15 00:23:45;;;;;;;487.73;441.67;;;;;;;23.14;54.97;99536.88;338886;28;1457;-73
2022/07/15 00:23:56;;;;;;;481.33;435.33;;;;;;;23.15;54.43;99532.38;340744;29;809;-73
2022/07/15 00:24:06;;;;;;;479.73;433.73;;;;;;;23.14;54.51;99534.22;340312;29;1343;-73
2022/07/15 00:24:16;;;;;;;480.13;434.13;;;;;;;23.13;54.86;99537.03;335201;29;1395;-73
2022/07/15 00:24:30;;;;;;;481.63;435.60;;;;;;;23.13;54.91;99537.03;334480;29;953;-73
2022/07/15 00:24:40;;;;;;;475.95;430.27;;;;;;;23.17;54.78;99541.94;334721;29;1430;-73
2022/07/15 00:24:51;;;;;;;474.93;429.27;;;;;;;23.15;54.65;99535.91;336019;29;1322;-73
2022/07/15 00:25:01;;;;;;;476.98;431.27;;;;;;;23.14;54.60;99539.56;335992;29;1003;-73
2022/07/15 00:25:12;;;;;;;484.17;438.23;;;;;;;23.12;54.59;99540.69;335605;29;849;-73
2022/07/15 00:25:22;;;;;;;480.35;434.55;;;;;;;23.13;54.92;99537.03;336546;29;1217;-73
2022/07/15 00:25:33;;;;;;;483.50;437.53;;;;;;;23.11;55.08;99539.00;333444;29;959;-73
2022/07/15 00:25:43;;;;;;;482.45;436.52;;;;;;;23.12;54.92;99538.00;332993;29;1560;-73
2022/07/15 00:25:54;;;;;;;487.50;441.40;;;;;;;23.11;55.27;99537.16;335622;29;1068;-73
2022/07/15 00:26:05;;;;;;;484.65;438.63;;;;;;;23.11;55.11;99533.66;333902;29;1859;-73
2022/07/15 00:26:15;;;;;;;482.00;435.85;;;;;;;23.13;55.04;99539.69;332231;29;1795;-73
2022/07/15 00:26:25;;;;;;;479.47;433.30;;;;;;;23.13;54.78;99539.69;328332;30;1406;-73
2022/07/15 00:26:36;;;;;;;478.00;431.98;;;;;;;23.16;55.25;99536.75;325690;29;2033;-73
2022/07/15 00:26:47;;;;;;;480.50;434.67;;;;;;;23.14;54.82;99539.56;323382;30;2214;-72
2022/07/15 00:26:58;;;;;;;477.05;431.55;;;;;;;23.15;55.23;99537.72;325576;30;1744;-72
2022/07/15 00:27:08;;;;;;;486.03;440.23;;;;;;;23.13;54.92;99537.88;328670;30;1189;-72
2022/07/15 00:27:19;;;;;;;483.27;437.58;;;;;;;23.13;55.06;99537.03;326617;30;1487;-72
2022/07/15 00:27:29;;;;;;;483.57;437.80;;;;;;;23.10;55.39;99538.16;325431;30;1137;-73
2022/07/15 00:27:51;;;;;;;478.93;433.27;;;;;;;23.13;55.00;99537.03;323190;30;1340;-73
2022/07/15 00:28:04;;;;;;;478.02;432.52;;;;;;;23.12;55.51;99538.84;322349;30;2062;-73
2022/07/15 00:28:15;;;;;;;477.27;431.67;;;;;;;23.16;55.37;99542.06;323239;30;2427;-73
2022/07/15 00:28:25;;;;;;;478.45;432.85;;;;;;;23.16;55.39;99534.91;326807;30;1568;-73
2022/07/15 00:28:36;;;;;;;480.05;434.48;;;;;;;23.15;55.27;99535.91;328041;30;2567;-73
2022/07/15 00:28:46;;;;;;;484.53;438.83;;;;;;;23.17;55.41;99533.91;326180;30;2823;-73
2022/07/15 00:28:57;;;;;;;482.42;436.55;;;;;;;23.19;55.10;99539.13;328066;30;800;-73
2022/07/15 00:29:07;;;;;;;488.67;442.57;;;;;;;23.18;55.29;99535.59;330001;29;2729;-73
2022/07/15 00:29:17;;;;;;;489.25;443.05;;;;;;;23.19;55.30;99536.44;330267;29;1787;-73
2022/07/15 00:29:29;;;;;;;491.57;445.47;;;;;;;23.17;55.26;99538.41;329035;30;1328;-73
2022/07/15 00:29:39;;;;;;;487.00;440.92;;;;;;;23.20;55.51;99538.13;328838;30;980;-73
2022/07/15 00:29:50;;;;;;;483.08;436.95;;;;;;;23.19;55.25;99533.78;327353;30;1962;-73
2022/07/15 00:30:01;;;;;;;481.92;435.67;;;;;;;23.20;55.36;99538.13;325908;30;3327;-73
2022/07/15 00:30:11;;;;;;;483.27;437.03;;;;;;;23.21;55.12;99539.81;323136;30;1301;-73
2022/07/15 00:30:22;;;;;;;477.98;432.08;;;;;;;23.20;55.26;99540.81;323556;30;2845;-73
2022/07/15 00:30:34;;;;;;;479.88;434.10;;;;;;;23.21;55.55;99539.81;322967;30;3374;-73
2022/07/15 00:30:45;;;;;;;482.83;436.88;;;;;;;23.18;55.37;99540.09;322511;30;3294;-73
2022/07/15 00:30:55;;;;;;;489.15;443.08;;;;;;;23.17;55.54;99538.41;321984;30;1518;-73
2022/07/15 00:31:06;;;;;;;479.60;433.87;;;;;;;23.15;55.73;99535.91;320188;30;3588;-73
2022/07/15 00:31:16;;;;;;;474.88;429.30;;;;;;;23.13;55.48;99543.22;317370;30;4981;-73
2022/07/15 00:31:27;;;;;;;477.67;431.93;;;;;;;23.14;55.51;99536.88;319470;30;3274;-73
2022/07/15 00:31:37;;;;;;;491.47;445.27;;;;;;;23.13;54.84;99532.53;319184;30;2548;-73
2022/07/15 00:31:47;;;;;;;494.98;448.52;;;;;;;23.15;55.73;99535.06;319571;30;2859;-73
2022/07/15 00:31:58;;;;;;;486.13;439.93;;;;;;;23.12;55.30;99530.00;319293;30;3820;-73
2022/07/15 00:32:08;;;;;;;486.05;440.13;;;;;;;23.12;55.50;99538.00;320767;30;1261;-73
2022/07/15 00:32:19;;;;;;;488.67;442.87;;;;;;;23.09;55.24;99532.97;319282;30;3572;-73
2022/07/15 00:32:29;;;;;;;491.67;445.77;;;;;;;23.04;55.73;99533.38;318573;30;4004;-73
2022/07/15 00:32:40;;;;;;;488.70;442.80;;;;;;;23.07;55.53;99540.28;319665;30;806;-73
2022/07/15 00:32:51;;;;;;;481.23;435.52;;;;;;;23.06;55.79;99538.59;312560;31;4623;-73
2022/07/15 00:33:01;;;;;;;477.33;431.52;;;;;;;23.05;55.67;99531.56;312137;31;4475;-73
2022/07/15 00:33:12;;;;;;;476.67;430.90;;;;;;;23.05;55.64;99528.88;313903;31;1615;-73
2022/07/15 00:33:22;;;;;;;481.77;435.83;;;;;;;22.96;55.93;99529.78;315476;31;4642;-73
2022/07/15 00:33:32;;;;;;;479.87;434.10;;;;;;;22.97;56.02;99534.94;314451;31;5374;-73
2022/07/15 00:33:43;;;;;;;484.98;439.00;;;;;;;22.95;55.63;99533.44;313396;31;3287;-73
2022/07/15 00:33:53;;;;;;;482.17;436.17;;;;;;;22.95;55.73;99528.94;311929;31;879;-73
2022/07/15 00:34:04;;;;;;;486.20;440.20;;;;;;;22.94;55.93;99532.59;312100;31;3169;-73
2022/07/15 00:34:14;;;;;;;483.30;437.20;;;;;;;22.96;56.00;99535.13;313836;31;4316;-73
2022/07/15 00:34:25;;;;;;;486.00;439.70;;;;;;;22.95;55.74;99530.75;315093;31;894;-73
2022/07/15 00:34:35;;;;;;;494.50;447.80;;;;;;;22.96;55.68;99535.13;309284;31;5066;-73
2022/07/15 00:34:45;;;;;;;497.20;450.53;;;;;;;22.94;56.12;99537.09;305811;31;5335;-73
2022/07/15 00:34:56;;;;;;;496.05;449.42;;;;;;;22.97;55.74;99531.44;306239;32;1246;-73
2022/07/15 00:35:07;;;;;;;488.17;441.87;;;;;;;22.95;55.82;99528.94;306107;32;6060;-73
2022/07/15 00:35:17;;;;;;;491.95;445.65;;;;;;;22.96;55.60;99535.13;305383;31;6112;-73
2022/07/15 00:35:29;;;;;;;491.05;444.95;;;;;;;22.94;55.74;99535.25;308015;31;6381;-73
2022/07/15 00:35:39;;;;;;;494.33;448.20;;;;;;;22.94;55.93;99529.91;307364;32;1317;-73
2022/07/15 00:35:49;;;;;;;498.02;451.77;;;;;;;22.91;55.86;99538.22;303373;32;6384;-73
2022/07/15 00:36:00;;;;;;;497.07;450.93;;;;;;;22.91;55.75;99532.03;301060;32;4560;-73
2022/07/15 00:36:10;;;;;;;497.60;451.07;;;;;;;22.94;55.59;99539.75;300036;32;845;-73
2022/07/15 00:36:21;;;;;;;500.40;453.52;;;;;;;22.95;55.86;99534.28;301579;32;4764;-73
2022/07/15 00:36:31;;;;;;;506.10;459.07;;;;;;;22.96;55.88;99529.78;299421;32;5969;-73
2022/07/15 00:36:42;;;;;;;508.83;462.17;;;;;;;22.97;55.59;99531.44;299005;33;1260;-73
2022/07/15 00:36:52;;;;;;;508.55;462.23;;;;;;;22.97;55.86;99534.09;298976;32;6874;-73
2022/07/15 00:37:03;;;;;;;506.60;460.30;;;;;;;22.96;55.78;99540.47;299548;32;7287;-73
2022/07/15 00:37:13;;;;;;;502.50;456.25;;;;;;;22.95;55.74;99538.78;296686;33;8252;-73
2022/07/15 00:37:24;;;;;;;501.37;455.10;;;;;;;22.97;56.09;99536.78;296059;33;978;-73
2022/07/15 00:37:34;;;;;;;497.92;451.67;;;;;;;22.96;55.86;99535.94;296313;33;8531;-73
2022/07/15 00:37:46;;;;;;;500.33;453.97;;;;;;;22.95;56.05;99533.44;295264;33;8526;-73
2022/07/15 00:37:56;;;;;;;506.13;459.58;;;;;;;22.95;55.91;99528.09;290948;33;1488;-73
2022/07/15 00:38:08;;;;;;;515.47;468.67;;;;;;;22.96;55.81;99532.44;292645;33;8799;-73
2022/07/15 00:38:18;;;;;;;513.28;466.58;;;;;;;22.96;56.03;99538.59;290767;33;6471;-73
2022/07/15 00:38:28;;;;;;;510.10;463.67;;;;;;;22.96;55.86;99535.13;288261;34;6728;-73
2022/07/15 00:38:39;;;;;;;508.17;461.80;;;;;;;22.97;55.96;99536.78;290171;34;884;-73
2022/07/15 00:38:50;;;;;;;511.13;464.63;;;;;;;22.98;55.74;99533.13;283153;34;7976;-73
2022/07/15 00:39:00;;;;;;;512.75;466.05;;;;;;;22.96;55.56;99535.13;282596;34;9258;-73
2022/07/15 00:39:10;;;;;;;511.00;464.23;;;;;;;22.98;56.14;99535.78;286494;34;1625;-73
2022/07/15 00:39:21;;;;;;;507.03;460.37;;;;;;;22.97;56.00;99532.28;286310;34;9998;-73
2022/07/15 00:39:31;;;;;;;501.50;454.90;;;;;;;22.96;56.17;99537.78;285891;34;10752;-73
2022/07/15 00:39:42;;;;;;;494.90;448.47;;;;;;;22.91;55.83;99532.03;287231;34;1250;-73
2022/07/15 00:39:52;;;;;;;498.35;451.98;;;;;;;22.87;56.02;99532.31;283033;34;10992;-73
2022/07/15 00:41:43;;;;;;;474.22;428.41;;;;;;;22.90;56.24;99536.53;2491548;27;20525;-72
2022/07/15 00:41:54;;;;;;;505.93;459.53;;;;;;;22.93;55.81;99540.75;353025;28;804;-72
2022/07/15 00:42:04;;;;;;;507.33;460.90;;;;;;;22.92;56.03;99528.38;351691;28;1403;-72
2022/07/15 00:42:43;;;;;;;512.53;465.97;;;;;;;22.93;56.38;99530.06;348766;28;1156;-72
2022/07/15 00:42:45;;;;;;;504.02;457.70;;;;;;;22.89;56.05;99535.69;346987;28;1547;-72
2022/07/15 00:42:56;;;;;;;502.17;455.87;;;;;;;22.90;55.96;99539.19;348748;28;805;-72
2022/07/15 00:43:06;;;;;;;497.40;451.30;;;;;;;22.91;56.00;99534.69;348929;28;1001;-72
2022/07/15 00:43:17;;;;;;;497.13;451.07;;;;;;;22.89;56.35;99534.84;351065;28;1469;-72
2022/07/15 00:43:27;;;;;;;492.45;446.50;;;;;;;22.89;56.24;99532.19;351315;28;1508;-72
2022/07/15 00:43:39;;;;;;;499.52;453.63;;;;;;;22.90;56.37;99536.53;352369;28;917;-72
2022/07/15 00:43:50;;;;;;;499.77;453.98;;;;;;;22.91;56.06;99540.88;349369;28;1121;-72
2022/07/15 00:44:00;;;;;;;502.33;456.43;;;;;;;22.92;55.46;99539.06;348859;28;871;-72
2022/07/15 00:44:11;;;;;;;504.27;458.30;;;;;;;22.92;56.25;99539.91;350240;28;816;-72
2022/07/15 00:44:22;;;;;;;508.38;462.25;;;;;;;22.93;56.15;99538.06;348862;28;916;-72
2022/07/15 00:44:32;;;;;;;501.20;455.07;;;;;;;22.93;56.25;99530.06;348837;28;800;-72
2022/07/15 00:44:43;;;;;;;499.27;453.02;;;;;;;22.93;56.06;99530.91;346790;28;1711;-73
2022/07/15 00:44:53;;;;;;;497.00;450.70;;;;;;;22.92;55.96;99533.72;346811;28;813;-73
2022/07/15 00:45:04;;;;;;;505.27;458.88;;;;;;;22.92;56.15;99533.72;345910;28;1389;-73
2022/07/15 00:45:18;;;;;;;506.23;459.98;;;;;;;22.92;56.60;99533.72;347426;28;1224;-73
2022/07/15 00:45:28;;;;;;;511.95;465.52;;;;;;;22.92;56.38;99533.72;344770;28;1251;-74
2022/07/15 00:45:39;;;;;;;508.50;462.15;;;;;;;22.89;56.57;99529.50;351318;28;1255;-73
2022/07/15 00:45:49;;;;;;;501.70;455.40;;;;;;;22.86;56.46;99530.63;350736;28;1337;-73
2022/07/15 00:45:59;;;;;;;498.90;452.67;;;;;;;22.88;56.37;99531.34;348804;28;879;-73
2022/07/15 00:46:13;;;;;;;498.13;451.83;;;;;;;22.90;56.29;99536.53;345945;28;1216;-73
2022/07/15 00:46:24;;;;;;;494.83;448.70;;;;;;;22.91;56.36;99535.53;345575;28;898;-74
2022/07/15 00:46:34;;;;;;;498.17;452.20;;;;;;;22.93;56.02;99538.06;344846;28;627;-74
2022/07/15 00:46:45;;;;;;;499.63;453.67;;;;;;;22.93;56.05;99535.41;343417;28;840;-74
2022/07/15 00:46:55;;;;;;;504.58;458.40;;;;;;;22.91;56.28;99538.22;344702;28;1236;-73
2022/07/15 00:47:06;;;;;;;507.67;461.40;;;;;;;22.91;56.12;99532.03;343995;28;1231;-73
2022/07/15 00:47:16;;;;;;;513.23;466.83;;;;;;;22.92;56.18;99525.72;343299;28;1360;-73
2022/07/15 00:47:26;;;;;;;511.55;465.20;;;;;;;22.91;56.51;99537.38;344537;28;865;-73
2022/07/15 00:47:37;;;;;;;507.30;461.00;;;;;;;22.91;56.09;99534.69;343939;28;1279;-73
2022/07/15 00:47:52;;;;;;;503.97;457.83;;;;;;;22.89;56.27;99535.69;340578;28;1621;-74
2022/07/15 00:48:03;;;;;;;499.83;453.98;;;;;;;22.89;56.72;99533.03;344086;28;1252;-74
2022/07/15 00:48:13;;;;;;;501.63;455.70;;;;;;;22.89;56.63;99535.69;342324;28;809;-73
2022/07/15 00:48:24;;;;;;;502.93;456.93;;;;;;;22.86;56.48;99530.63;344613;28;1340;-73
2022/07/15 00:48:34;;;;;;;504.35;458.45;;;;;;;22.88;56.90;99539.34;342606;28;1023;-73
2022/07/15 00:48:45;;;;;;;504.07;458.10;;;;;;;22.89;56.36;99530.34;341894;28;1238;-73
2022/07/15 00:48:55;;;;;;;510.35;464.30;;;;;;;22.88;56.96;99539.34;344712;28;1229;-74
2022/07/15 00:49:06;;;;;;;510.20;464.03;;;;;;;22.87;56.62;99526.97;346032;28;1032;-74
2022/07/15 00:49:17;;;;;;;503.23;457.20;;;;;;;22.88;56.88;99533.16;343347;28;1149;-74
2022/07/15 00:49:27;;;;;;;499.53;453.60;;;;;;;22.86;57.00;99530.63;338074;29;980;-74
2022/07/15 00:49:38;;;;;;;504.23;458.40;;;;;;;22.86;56.78;99530.63;338280;28;4081;-74
2022/07/15 00:49:48;;;;;;;505.10;459.37;;;;;;;22.85;56.49;99533.44;337204;29;2665;-74
2022/07/15 00:49:59;;;;;;;509.25;463.27;;;;;;;22.83;56.89;99530.06;340338;29;3092;-74
2022/07/15 00:50:09;;;;;;;507.73;461.73;;;;;;;22.82;56.63;99534.56;344276;28;1841;-74
2022/07/15 00:50:20;;;;;;;508.10;461.90;;;;;;;22.82;56.71;99533.72;342512;28;3280;-73
2022/07/15 00:50:31;;;;;;;500.00;454.02;;;;;;;22.82;56.82;99529.22;343144;28;1973;-73
2022/07/15 00:50:41;;;;;;;503.60;457.43;;;;;;;22.83;57.02;99532.75;341847;28;1372;-73
2022/07/15 00:50:52;;;;;;;500.52;454.52;;;;;;;22.83;56.51;99530.06;343066;28;868;-73
2022/07/15 00:51:02;;;;;;;497.47;451.50;;;;;;;22.82;56.82;99531.91;340773;29;837;-73
2022/07/15 00:51:12;;;;;;;501.08;455.02;;;;;;;22.82;56.88;99529.22;340065;29;1721;-73
2022/07/15 00:51:23;;;;;;;509.60;463.17;;;;;;;22.82;56.53;99531.91;339149;29;1282;-73
2022/07/15 00:51:43;;;;;;;514.77;468.27;;;;;;;22.79;56.56;99528.66;336712;28;2089;-73
2022/07/15 00:51:55;;;;;;;506.90;460.52;;;;;;;22.78;57.09;99530.50;336445;29;1691;-73
2022/07/15 00:52:05;;;;;;;499.75;453.52;;;;;;;22.78;57.24;99527.84;335165;29;1789;-73
2022/07/15 00:52:16;;;;;;;501.75;455.38;;;;;;;22.79;57.02;99529.50;334319;29;882;-73
2022/07/15 00:52:26;;;;;;;504.55;458.08;;;;;;;22.79;56.94;99529.50;337633;29;2089;-73
2022/07/15 00:52:39;;;;;;;519.80;472.80;;;;;;;22.79;57.02;99532.19;335154;29;2029;-73
2022/07/15 00:52:58;;;;;;;522.63;475.80;;;;;;;22.79;56.93;99532.19;334489;29;1847;-73
2022/07/15 00:53:16;;;;;;;519.33;472.92;;;;;;;22.78;57.18;99527.84;337880;29;1693;-73
2022/07/15 00:53:28;;;;;;;516.55;470.15;;;;;;;22.81;57.16;99532.03;333059;29;1184;-73
2022/07/15 00:53:38;;;;;;;507.88;461.75;;;;;;;22.80;56.99;99531.19;329081;29;1952;-73
2022/07/15 00:53:49;;;;;;;507.27;461.27;;;;;;;22.83;57.22;99530.91;328246;29;2220;-73
2022/07/15 00:54:00;;;;;;;508.15;462.00;;;;;;;22.84;57.24;99537.09;332787;29;1790;-73
2022/07/15 00:54:12;;;;;;;512.05;465.75;;;;;;;22.85;57.33;99530.78;333520;29;2491;-73